sensor_id;sensor_type;location;lat;lon;timestamp;pressure;altitude;pressure_sealevel;temperature;humidity
20027;BME280;10174;42.688;23.344;2023-04-26T00:01:13;94344.28;;;8.31;100.00
20027;BME280;10174;42.688;23.344;2023-04-26T00:03:39;94323.69;;;8.16;100.00
20027;BME280;10174;42.688;23.344;2023-04-26T00:06:04;94370.50;;;8.45;100.00
20027;BME280;10174;42.688;23.344;2023-04-26T00:08:33;94334.41;;;8.22;100.00
20027;BME280;10174;42.688;23.344;2023-04-26T00:10:58;94373.41;;;8.38;100.00
20027;BME280;10174;42.688;23.344;2023-04-26T00:13:24;94264.94;;;7.75;100.00
20027;BME280;10174;42.688;23.344;2023-04-26T00:15:49;94281.22;;;7.89;100.00
20027;BME280;10174;42.688;23.344;2023-04-26T00:18:14;94287.66;;;7.88;100.00
20027;BME280;10174;42.688;23.344;2023-04-26T00:20:41;94329.59;;;8.18;100.00
20027;BME280;10174;42.688;23.344;2023-04-26T00:23:06;94351.22;;;8.27;100.00
20027;BME280;10174;42.688;23.344;2023-04-26T00:25:34;94368.09;;;8.33;100.00
20027;BME280;10174;42.688;23.344;2023-04-26T00:28:00;94375.31;;;8.27;100.00
20027;BME280;10174;42.688;23.344;2023-04-26T00:30:26;94357.69;;;8.11;100.00
20027;BME280;10174;42.688;23.344;2023-04-26T00:32:52;94371.84;;;8.16;100.00
20027;BME280;10174;42.688;23.344;2023-04-26T00:35:17;94342.97;;;8.03;100.00
20027;BME280;10174;42.688;23.344;2023-04-26T00:37:43;94325.66;;;7.85;100.00
20027;BME280;10174;42.688;23.344;2023-04-26T00:40:09;94356.38;;;7.93;100.00
20027;BME280;10174;42.688;23.344;2023-04-26T00:42:34;94293.06;;;7.52;100.00
20027;BME280;10174;42.688;23.344;2023-04-26T00:45:00;94267.94;;;7.27;100.00
20027;BME280;10174;42.688;23.344;2023-04-26T00:47:28;94287.97;;;7.35;100.00
20027;BME280;10174;42.688;23.344;2023-04-26T00:49:54;94273.81;;;7.29;100.00
20027;BME280;10174;42.688;23.344;2023-04-26T00:52:20;94360.41;;;7.75;100.00
20027;BME280;10174;42.688;23.344;2023-04-26T00:54:48;94237.47;;;6.92;100.00
20027;BME280;10174;42.688;23.344;2023-04-26T00:57:13;94349.16;;;7.67;100.00
20027;BME280;10174;42.688;23.344;2023-04-26T00:59:39;94370.03;;;7.71;100.00
20027;BME280;10174;42.688;23.344;2023-04-26T01:02:05;94372.19;;;7.69;100.00
20027;BME280;10174;42.688;23.344;2023-04-26T01:04:31;94363.09;;;7.59;100.00
20027;BME280;10174;42.688;23.344;2023-04-26T01:06:59;94369.50;;;7.58;100.00
20027;BME280;10174;42.688;23.344;2023-04-26T01:09:24;94361.47;;;7.53;100.00
20027;BME280;10174;42.688;23.344;2023-04-26T01:11:50;94379.91;;;7.55;100.00
20027;BME280;10174;42.688;23.344;2023-04-26T01:14:17;94358.25;;;7.46;100.00
20027;BME280;10174;42.688;23.344;2023-04-26T01:16:43;94375.09;;;7.46;100.00
20027;BME280;10174;42.688;23.344;2023-04-26T01:19:11;94382.31;;;7.46;100.00
20027;BME280;10174;42.688;23.344;2023-04-26T01:21:37;94309.56;;;6.98;100.00
20027;BME280;10174;42.688;23.344;2023-04-26T01:24:02;94372.69;;;7.45;100.00
20027;BME280;10174;42.688;23.344;2023-04-26T01:26:28;94297.84;;;7.14;100.00
20027;BME280;10174;42.688;23.344;2023-04-26T01:28:53;94283.94;;;7.02;100.00
20027;BME280;10174;42.688;23.344;2023-04-26T01:31:18;94286.88;;;6.95;100.00
20027;BME280;10174;42.688;23.344;2023-04-26T01:33:44;94352.09;;;7.35;100.00
20027;BME280;10174;42.688;23.344;2023-04-26T01:36:09;94353.44;;;7.27;100.00
20027;BME280;10174;42.688;23.344;2023-04-26T01:38:35;94244.38;;;6.52;100.00
20027;BME280;10174;42.688;23.344;2023-04-26T01:41:00;94328.81;;;7.00;100.00
20027;BME280;10174;42.688;23.344;2023-04-26T01:43:26;94361.44;;;7.17;100.00
20027;BME280;10174;42.688;23.344;2023-04-26T01:45:51;94354.19;;;7.07;100.00
20027;BME280;10174;42.688;23.344;2023-04-26T01:48:17;94273.97;;;6.51;100.00
20027;BME280;10174;42.688;23.344;2023-04-26T01:50:42;94369.44;;;7.12;100.00
20027;BME280;10174;42.688;23.344;2023-04-26T01:53:08;94233.63;;;6.32;100.00
20027;BME280;10174;42.688;23.344;2023-04-26T01:55:33;94303.69;;;6.80;100.00
20027;BME280;10174;42.688;23.344;2023-04-26T01:57:58;94354.50;;;7.21;100.00
20027;BME280;10174;42.688;23.344;2023-04-26T02:00:28;94350.75;;;7.17;100.00
20027;BME280;10174;42.688;23.344;2023-04-26T02:02:56;94301.03;;;6.90;100.00
20027;BME280;10174;42.688;23.344;2023-04-26T02:05:22;94353.44;;;7.32;100.00
20027;BME280;10174;42.688;23.344;2023-04-26T02:07:48;94339.28;;;7.27;100.00
20027;BME280;10174;42.688;23.344;2023-04-26T02:10:14;94270.31;;;6.93;100.00
20027;BME280;10174;42.688;23.344;2023-04-26T02:12:39;94262.03;;;6.94;100.00
20027;BME280;10174;42.688;23.344;2023-04-26T02:15:05;94269.53;;;6.92;100.00
20027;BME280;10174;42.688;23.344;2023-04-26T02:17:32;94349.72;;;7.49;100.00
20027;BME280;10174;42.688;23.344;2023-04-26T02:19:57;94344.09;;;7.40;100.00
20027;BME280;10174;42.688;23.344;2023-04-26T02:22:23;94257.75;;;6.78;100.00
20027;BME280;10174;42.688;23.344;2023-04-26T02:24:52;94329.66;;;7.21;100.00
20027;BME280;10174;42.688;23.344;2023-04-26T02:27:18;94324.03;;;7.17;100.00
20027;BME280;10174;42.688;23.344;2023-04-26T02:29:44;94339.00;;;7.39;100.00
20027;BME280;10174;42.688;23.344;2023-04-26T02:32:12;94332.59;;;7.40;100.00
20027;BME280;10174;42.688;23.344;2023-04-26T02:34:37;94269.81;;;7.01;100.00
20027;BME280;10174;42.688;23.344;2023-04-26T02:37:03;94192.84;;;6.47;100.00
20027;BME280;10174;42.688;23.344;2023-04-26T02:39:28;94353.97;;;7.60;100.00
20027;BME280;10174;42.688;23.344;2023-04-26T02:41:54;94268.50;;;7.19;100.00
20027;BME280;10174;42.688;23.344;2023-04-26T02:44:19;94265.00;;;7.03;100.00
20027;BME280;10174;42.688;23.344;2023-04-26T02:46:45;94257.50;;;6.95;100.00
20027;BME280;10174;42.688;23.344;2023-04-26T02:49:10;94345.44;;;7.53;100.00
20027;BME280;10174;42.688;23.344;2023-04-26T02:51:35;94337.16;;;7.60;100.00
20027;BME280;10174;42.688;23.344;2023-04-26T02:54:01;94339.03;;;7.75;100.00
20027;BME280;10174;42.688;23.344;2023-04-26T02:56:27;94278.09;;;7.46;100.00
20027;BME280;10174;42.688;23.344;2023-04-26T02:58:52;94257.78;;;7.50;100.00
20027;BME280;10174;42.688;23.344;2023-04-26T03:01:18;94328.56;;;7.94;100.00
20027;BME280;10174;42.688;23.344;2023-04-26T03:03:43;94321.34;;;7.99;100.00
20027;BME280;10174;42.688;23.344;2023-04-26T03:06:09;94235.34;;;7.46;100.00
20027;BME280;10174;42.688;23.344;2023-04-26T03:08:34;94326.94;;;7.98;100.00
20027;BME280;10174;42.688;23.344;2023-04-26T03:11:00;94203.56;;;7.24;100.00
20027;BME280;10174;42.688;23.344;2023-04-26T03:13:26;94244.16;;;7.52;100.00
20027;BME280;10174;42.688;23.344;2023-04-26T03:15:51;94302.09;;;7.92;100.00
20027;BME280;10174;42.688;23.344;2023-04-26T03:18:17;94301.53;;;7.95;100.00
20027;BME280;10174;42.688;23.344;2023-04-26T03:20:43;94200.06;;;7.39;100.00
20027;BME280;10174;42.688;23.344;2023-04-26T03:23:08;94273.75;;;7.86;100.00
20027;BME280;10174;42.688;23.344;2023-04-26T03:25:34;94293.78;;;7.94;99.85
20027;BME280;10174;42.688;23.344;2023-04-26T03:27:59;94295.16;;;7.91;99.37
20027;BME280;10174;42.688;23.344;2023-04-26T03:30:25;94317.00;;;8.14;99.15
20027;BME280;10174;42.688;23.344;2023-04-26T03:32:50;94193.94;;;7.38;98.57
20027;BME280;10174;42.688;23.344;2023-04-26T03:35:16;94301.53;;;8.06;98.57
20027;BME280;10174;42.688;23.344;2023-04-26T03:37:41;94320.75;;;8.23;99.56
20027;BME280;10174;42.688;23.344;2023-04-26T03:40:07;94240.63;;;7.72;99.83
20027;BME280;10174;42.688;23.344;2023-04-26T03:42:34;94336.00;;;8.28;100.00
20027;BME280;10174;42.688;23.344;2023-04-26T03:45:00;94341.88;;;8.30;100.00
20027;BME280;10174;42.688;23.344;2023-04-26T03:47:30;94299.91;;;8.05;100.00
20027;BME280;10174;42.688;23.344;2023-04-26T03:49:56;94328.72;;;8.33;100.00
20027;BME280;10174;42.688;23.344;2023-04-26T03:52:22;94306.31;;;8.19;100.00
20027;BME280;10174;42.688;23.344;2023-04-26T03:54:47;94202.97;;;7.53;100.00
20027;BME280;10174;42.688;23.344;2023-04-26T03:57:13;94338.91;;;8.42;100.00
20027;BME280;10174;42.688;23.344;2023-04-26T03:59:38;94230.22;;;7.70;100.00
20027;BME280;10174;42.688;23.344;2023-04-26T04:02:04;94330.06;;;8.36;100.00
20027;BME280;10174;42.688;23.344;2023-04-26T04:04:29;94324.19;;;8.39;100.00
20027;BME280;10174;42.688;23.344;2023-04-26T04:06:55;94324.78;;;8.20;99.58
20027;BME280;10174;42.688;23.344;2023-04-26T04:09:20;94351.97;;;8.59;99.93
20027;BME280;10174;42.688;23.344;2023-04-26T04:11:45;94331.63;;;8.58;99.22
20027;BME280;10174;42.688;23.344;2023-04-26T04:14:11;94352.81;;;8.49;97.15
20027;BME280;10174;42.688;23.344;2023-04-26T04:16:36;94365.66;;;8.57;97.67
20027;BME280;10174;42.688;23.344;2023-04-26T04:19:02;94300.94;;;8.24;97.32
20027;BME280;10174;42.688;23.344;2023-04-26T04:21:27;94258.19;;;8.09;98.23
20027;BME280;10174;42.688;23.344;2023-04-26T04:23:53;94361.28;;;8.77;97.04
20027;BME280;10174;42.688;23.344;2023-04-26T04:26:19;94355.19;;;8.66;95.47
20027;BME280;10174;42.688;23.344;2023-04-26T04:28:45;94363.66;;;8.83;95.65
20027;BME280;10174;42.688;23.344;2023-04-26T04:31:11;94373.97;;;9.11;94.78
20027;BME280;10174;42.688;23.344;2023-04-26T04:33:37;94337.66;;;8.84;93.55
20027;BME280;10174;42.688;23.344;2023-04-26T04:36:03;94358.13;;;9.19;91.76
20027;BME280;10174;42.688;23.344;2023-04-26T04:38:31;94373.28;;;9.34;90.61
20027;BME280;10174;42.688;23.344;2023-04-26T04:40:56;94372.84;;;9.61;90.01
20027;BME280;10174;42.688;23.344;2023-04-26T04:43:22;94385.06;;;9.38;89.39
20027;BME280;10174;42.688;23.344;2023-04-26T04:45:48;94306.63;;;8.83;89.58
20027;BME280;10174;42.688;23.344;2023-04-26T04:48:14;94353.09;;;9.07;90.05
20027;BME280;10174;42.688;23.344;2023-04-26T04:50:39;94224.91;;;8.30;89.97
20027;BME280;10174;42.688;23.344;2023-04-26T04:53:06;94376.66;;;9.11;90.23
20027;BME280;10174;42.688;23.344;2023-04-26T04:55:33;94268.75;;;8.50;89.85
20027;BME280;10174;42.688;23.344;2023-04-26T04:57:59;94371.22;;;9.26;89.26
20027;BME280;10174;42.688;23.344;2023-04-26T05:00:24;94267.09;;;8.64;89.75
20027;BME280;10174;42.688;23.344;2023-04-26T05:02:49;94303.25;;;9.06;89.42
20027;BME280;10174;42.688;23.344;2023-04-26T05:05:15;94380.34;;;9.65;88.04
20027;BME280;10174;42.688;23.344;2023-04-26T05:07:40;94383.56;;;9.61;88.71
20027;BME280;10174;42.688;23.344;2023-04-26T05:10:06;94236.44;;;8.86;88.04
20027;BME280;10174;42.688;23.344;2023-04-26T05:12:32;94256.31;;;9.14;86.76
20027;BME280;10174;42.688;23.344;2023-04-26T05:14:58;94378.66;;;10.08;85.51
20027;BME280;10174;42.688;23.344;2023-04-26T05:17:24;94254.47;;;9.15;85.83
20027;BME280;10174;42.688;23.344;2023-04-26T05:19:49;94387.97;;;10.16;85.92
20027;BME280;10174;42.688;23.344;2023-04-26T05:22:14;94359.94;;;9.98;84.16
20027;BME280;10174;42.688;23.344;2023-04-26T05:24:47;94356.84;;;9.86;84.20
20027;BME280;10174;42.688;23.344;2023-04-26T05:27:13;94375.06;;;9.89;85.13
20027;BME280;10174;42.688;23.344;2023-04-26T05:29:38;94374.22;;;9.93;84.82
20027;BME280;10174;42.688;23.344;2023-04-26T05:32:05;94354.22;;;9.80;83.25
20027;BME280;10174;42.688;23.344;2023-04-26T05:34:30;94356.56;;;9.87;83.30
20027;BME280;10174;42.688;23.344;2023-04-26T05:36:56;94366.97;;;10.23;84.32
20027;BME280;10174;42.688;23.344;2023-04-26T05:39:21;94392.78;;;10.48;83.98
20027;BME280;10174;42.688;23.344;2023-04-26T05:41:47;94391.47;;;10.70;84.21
20027;BME280;10174;42.688;23.344;2023-04-26T05:44:12;94394.66;;;10.96;83.26
20027;BME280;10174;42.688;23.344;2023-04-26T05:46:41;94370.56;;;10.67;81.42
20027;BME280;10174;42.688;23.344;2023-04-26T05:49:06;94399.34;;;10.85;81.78
20027;BME280;10174;42.688;23.344;2023-04-26T05:51:32;94398.84;;;10.83;82.16
20027;BME280;10174;42.688;23.344;2023-04-26T05:53:57;94365.38;;;10.51;81.38
20027;BME280;10174;42.688;23.344;2023-04-26T05:56:23;94410.00;;;10.72;81.96
20027;BME280;10174;42.688;23.344;2023-04-26T05:58:50;94377.19;;;10.50;81.28
20027;BME280;10174;42.688;23.344;2023-04-26T06:01:15;94380.72;;;10.70;80.82
20027;BME280;10174;42.688;23.344;2023-04-26T06:03:41;94396.53;;;10.77;81.03
20027;BME280;10174;42.688;23.344;2023-04-26T06:06:06;94397.78;;;10.84;80.61
20027;BME280;10174;42.688;23.344;2023-04-26T06:08:32;94401.88;;;11.01;80.70
20027;BME280;10174;42.688;23.344;2023-04-26T06:10:58;94394.94;;;10.95;80.48
20027;BME280;10174;42.688;23.344;2023-04-26T06:13:23;94408.16;;;11.15;80.69
20027;BME280;10174;42.688;23.344;2023-04-26T06:15:49;94381.47;;;11.00;80.69
20027;BME280;10174;42.688;23.344;2023-04-26T06:18:14;94403.56;;;11.16;80.51
20027;BME280;10174;42.688;23.344;2023-04-26T06:20:39;94346.25;;;10.58;81.14
20027;BME280;10174;42.688;23.344;2023-04-26T06:23:05;94380.22;;;10.92;81.86
20027;BME280;10174;42.688;23.344;2023-04-26T06:25:30;94365.47;;;10.90;79.88
20027;BME280;10174;42.688;23.344;2023-04-26T06:27:56;94375.75;;;11.26;78.87
20027;BME280;10174;42.688;23.344;2023-04-26T06:30:22;94232.88;;;10.61;78.10
20027;BME280;10174;42.688;23.344;2023-04-26T06:32:48;94315.94;;;11.34;76.07
20027;BME280;10174;42.688;23.344;2023-04-26T06:35:13;94404.47;;;11.68;78.31
20027;BME280;10174;42.688;23.344;2023-04-26T06:37:39;94373.56;;;11.66;78.16
20027;BME280;10174;42.688;23.344;2023-04-26T06:40:05;94367.91;;;11.48;76.34
20027;BME280;10174;42.688;23.344;2023-04-26T06:42:30;94402.22;;;11.94;76.21
20027;BME280;10174;42.688;23.344;2023-04-26T06:44:56;94375.97;;;12.19;74.22
20027;BME280;10174;42.688;23.344;2023-04-26T06:47:22;94401.25;;;12.04;74.64
20027;BME280;10174;42.688;23.344;2023-04-26T06:49:47;94277.31;;;11.63;73.27
20027;BME280;10174;42.688;23.344;2023-04-26T06:52:13;94395.88;;;11.85;69.70
20027;BME280;10174;42.688;23.344;2023-04-26T06:54:38;94393.84;;;11.39;69.21
20027;BME280;10174;42.688;23.344;2023-04-26T06:57:03;94346.81;;;10.98;69.88
20027;BME280;10174;42.688;23.344;2023-04-26T06:59:29;94379.25;;;11.45;69.22
20027;BME280;10174;42.688;23.344;2023-04-26T07:01:54;94379.25;;;11.45;69.31
20027;BME280;10174;42.688;23.344;2023-04-26T07:04:20;94408.69;;;12.13;67.33
20027;BME280;10174;42.688;23.344;2023-04-26T07:06:45;94416.88;;;11.83;67.41
20027;BME280;10174;42.688;23.344;2023-04-26T07:09:11;94409.94;;;11.82;68.07
20027;BME280;10174;42.688;23.344;2023-04-26T07:11:36;94341.19;;;11.71;69.07
20027;BME280;10174;42.688;23.344;2023-04-26T07:14:03;94395.56;;;12.39;66.23
20027;BME280;10174;42.688;23.344;2023-04-26T07:16:29;94295.66;;;11.61;67.85
20027;BME280;10174;42.688;23.344;2023-04-26T07:18:55;94360.38;;;12.02;67.90
20027;BME280;10174;42.688;23.344;2023-04-26T07:21:22;94411.38;;;11.93;67.51
20027;BME280;10174;42.688;23.344;2023-04-26T07:23:48;94394.66;;;11.58;67.47
20027;BME280;10174;42.688;23.344;2023-04-26T07:26:17;94310.88;;;11.13;67.95
20027;BME280;10174;42.688;23.344;2023-04-26T07:28:42;94402.50;;;11.36;68.37
20027;BME280;10174;42.688;23.344;2023-04-26T07:31:07;94419.66;;;11.40;68.43
20027;BME280;10174;42.688;23.344;2023-04-26T07:33:33;94427.56;;;11.31;68.14
20027;BME280;10174;42.688;23.344;2023-04-26T07:35:58;94393.75;;;11.06;68.57
20027;BME280;10174;42.688;23.344;2023-04-26T07:38:25;94417.00;;;11.59;67.87
20027;BME280;10174;42.688;23.344;2023-04-26T07:40:51;94294.72;;;11.51;65.41
20027;BME280;10174;42.688;23.344;2023-04-26T07:43:17;94412.06;;;12.18;64.47
20027;BME280;10174;42.688;23.344;2023-04-26T07:45:43;94408.03;;;12.35;64.05
20027;BME280;10174;42.688;23.344;2023-04-26T07:48:09;94435.75;;;12.35;65.09
20027;BME280;10174;42.688;23.344;2023-04-26T07:50:34;94430.81;;;12.56;63.83
20027;BME280;10174;42.688;23.344;2023-04-26T07:53:00;94400.91;;;12.11;62.66
20027;BME280;10174;42.688;23.344;2023-04-26T07:55:26;94459.09;;;11.69;64.24
20027;BME280;10174;42.688;23.344;2023-04-26T07:57:51;94446.28;;;11.61;63.17
20027;BME280;10174;42.688;23.344;2023-04-26T08:00:17;94416.22;;;11.34;63.81
20027;BME280;10174;42.688;23.344;2023-04-26T08:02:43;94432.44;;;11.48;63.34
20027;BME280;10174;42.688;23.344;2023-04-26T08:05:11;94434.94;;;11.64;63.39
20027;BME280;10174;42.688;23.344;2023-04-26T08:07:37;94435.66;;;12.26;62.13
20027;BME280;10174;42.688;23.344;2023-04-26T08:10:02;94424.19;;;12.02;61.57
20027;BME280;10174;42.688;23.344;2023-04-26T08:12:28;94433.13;;;12.49;61.62
20027;BME280;10174;42.688;23.344;2023-04-26T08:14:53;94444.13;;;13.22;58.80
20027;BME280;10174;42.688;23.344;2023-04-26T08:17:18;94441.91;;;12.69;60.50
20027;BME280;10174;42.688;23.344;2023-04-26T08:19:44;94382.78;;;12.30;60.78
20027;BME280;10174;42.688;23.344;2023-04-26T08:22:09;94403.59;;;13.13;58.71
20027;BME280;10174;42.688;23.344;2023-04-26T08:24:35;94442.72;;;14.25;56.55
20027;BME280;10174;42.688;23.344;2023-04-26T08:27:00;94388.97;;;14.47;56.46
20027;BME280;10174;42.688;23.344;2023-04-26T08:29:26;94438.44;;;15.76;52.49
20027;BME280;10174;42.688;23.344;2023-04-26T08:31:52;94415.63;;;14.39;54.19
20027;BME280;10174;42.688;23.344;2023-04-26T08:34:18;94424.59;;;15.11;53.09
20027;BME280;10174;42.688;23.344;2023-04-26T08:36:43;94425.63;;;14.93;53.32
20027;BME280;10174;42.688;23.344;2023-04-26T08:39:10;94410.13;;;14.22;54.36
20027;BME280;10174;42.688;23.344;2023-04-26T08:41:43;94317.91;;;13.24;55.21
20027;BME280;10174;42.688;23.344;2023-04-26T08:44:10;94422.94;;;13.57;56.95
20027;BME280;10174;42.688;23.344;2023-04-26T08:46:46;94439.66;;;13.82;57.12
20027;BME280;10174;42.688;23.344;2023-04-26T08:49:21;94438.16;;;13.53;57.49
20027;BME280;10174;42.688;23.344;2023-04-26T08:51:52;94446.53;;;13.88;56.02
20027;BME280;10174;42.688;23.344;2023-04-26T08:54:18;94436.31;;;13.76;55.22
20027;BME280;10174;42.688;23.344;2023-04-26T08:56:45;94383.25;;;12.93;56.67
20027;BME280;10174;42.688;23.344;2023-04-26T08:59:11;94419.84;;;13.22;56.75
20027;BME280;10174;42.688;23.344;2023-04-26T09:01:42;94350.19;;;13.01;56.32
20027;BME280;10174;42.688;23.344;2023-04-26T09:04:08;94446.44;;;13.57;55.92
20027;BME280;10174;42.688;23.344;2023-04-26T09:06:34;94446.78;;;13.78;55.42
20027;BME280;10174;42.688;23.344;2023-04-26T09:09:02;94444.75;;;13.47;56.34
20027;BME280;10174;42.688;23.344;2023-04-26T09:11:52;94460.91;;;13.75;56.27
20027;BME280;10174;42.688;23.344;2023-04-26T09:14:18;94419.38;;;13.84;54.96
20027;BME280;10174;42.688;23.344;2023-04-26T09:16:43;94387.06;;;13.57;54.16
20027;BME280;10174;42.688;23.344;2023-04-26T09:19:09;94413.06;;;13.89;53.74
20027;BME280;10174;42.688;23.344;2023-04-26T09:21:41;94425.97;;;13.42;55.01
20027;BME280;10174;42.688;23.344;2023-04-26T09:24:07;94444.47;;;14.07;53.72
20027;BME280;10174;42.688;23.344;2023-04-26T09:26:32;94422.28;;;14.33;52.06
20027;BME280;10174;42.688;23.344;2023-04-26T09:29:15;94407.34;;;14.36;52.05
20027;BME280;10174;42.688;23.344;2023-04-26T09:31:42;94451.63;;;14.71;51.31
20027;BME280;10174;42.688;23.344;2023-04-26T09:34:10;94449.34;;;14.42;51.31
20027;BME280;10174;42.688;23.344;2023-04-26T09:36:53;94426.31;;;14.67;50.88
20027;BME280;10174;42.688;23.344;2023-04-26T09:39:37;94402.56;;;14.33;50.77
20027;BME280;10174;42.688;23.344;2023-04-26T09:42:05;94435.91;;;14.05;52.05
20027;BME280;10174;42.688;23.344;2023-04-26T09:44:31;94448.59;;;14.50;52.37
20027;BME280;10174;42.688;23.344;2023-04-26T09:47:01;94437.25;;;14.62;50.25
20027;BME280;10174;42.688;23.344;2023-04-26T09:49:51;94440.94;;;14.21;50.59
20027;BME280;10174;42.688;23.344;2023-04-26T09:52:17;94336.84;;;14.15;49.32
20027;BME280;10174;42.688;23.344;2023-04-26T09:54:45;94421.00;;;15.34;48.60
20027;BME280;10174;42.688;23.344;2023-04-26T09:57:15;94429.09;;;15.82;46.46
20027;BME280;10174;42.688;23.344;2023-04-26T09:59:47;94438.94;;;14.58;49.24
20027;BME280;10174;42.688;23.344;2023-04-26T10:02:15;94422.31;;;14.96;48.24
20027;BME280;10174;42.688;23.344;2023-04-26T10:04:45;94417.25;;;15.03;47.36
20027;BME280;10174;42.688;23.344;2023-04-26T10:07:13;94405.84;;;15.24;46.38
20027;BME280;10174;42.688;23.344;2023-04-26T10:09:39;94429.25;;;15.95;45.80
20027;BME280;10174;42.688;23.344;2023-04-26T10:12:07;94427.59;;;17.20;42.44
20027;BME280;10174;42.688;23.344;2023-04-26T10:14:33;94392.13;;;16.86;41.88
20027;BME280;10174;42.688;23.344;2023-04-26T10:16:59;94391.16;;;16.00;43.81
20027;BME280;10174;42.688;23.344;2023-04-26T10:19:25;94412.19;;;16.20;43.22
20027;BME280;10174;42.688;23.344;2023-04-26T10:21:52;94425.25;;;15.92;42.88
20027;BME280;10174;42.688;23.344;2023-04-26T10:24:19;94369.69;;;15.11;44.36
20027;BME280;10174;42.688;23.344;2023-04-26T10:26:53;94435.88;;;14.73;47.12
20027;BME280;10174;42.688;23.344;2023-04-26T10:29:24;94416.31;;;14.68;46.12
20027;BME280;10174;42.688;23.344;2023-04-26T10:32:11;94411.75;;;14.54;46.00
20027;BME280;10174;42.688;23.344;2023-04-26T10:34:40;94284.28;;;14.21;45.61
20027;BME280;10174;42.688;23.344;2023-04-26T10:37:14;94414.59;;;14.49;46.43
20027;BME280;10174;42.688;23.344;2023-04-26T10:39:44;94418.94;;;14.59;46.73
20027;BME280;10174;42.688;23.344;2023-04-26T10:42:21;94338.44;;;14.16;46.06
20027;BME280;10174;42.688;23.344;2023-04-26T10:44:59;94411.06;;;14.71;44.75
20027;BME280;10174;42.688;23.344;2023-04-26T10:47:35;94388.53;;;15.34;43.48
20027;BME280;10174;42.688;23.344;2023-04-26T10:50:06;94400.72;;;15.97;41.77
20027;BME280;10174;42.688;23.344;2023-04-26T10:52:34;94398.31;;;15.61;41.75
20027;BME280;10174;42.688;23.344;2023-04-26T10:55:00;94431.41;;;15.58;42.89
20027;BME280;10174;42.688;23.344;2023-04-26T10:58:07;94361.78;;;14.74;42.83
20027;BME280;10174;42.688;23.344;2023-04-26T11:03:29;94419.09;;;14.31;44.09
20027;BME280;10174;42.688;23.344;2023-04-26T11:05:55;94401.19;;;14.44;44.11
20027;BME280;10174;42.688;23.344;2023-04-26T11:08:28;94408.56;;;14.84;42.83
20027;BME280;10174;42.688;23.344;2023-04-26T11:13:22;94364.31;;;14.17;44.06
20027;BME280;10174;42.688;23.344;2023-04-26T11:15:52;94383.97;;;14.08;43.96
20027;BME280;10174;42.688;23.344;2023-04-26T11:18:19;94370.34;;;14.14;44.73
20027;BME280;10174;42.688;23.344;2023-04-26T11:20:45;94341.00;;;14.21;43.56
20027;BME280;10174;42.688;23.344;2023-04-26T11:23:10;94395.44;;;14.37;43.93
20027;BME280;10174;42.688;23.344;2023-04-26T11:25:38;94332.06;;;13.89;44.51
20027;BME280;10174;42.688;23.344;2023-04-26T11:28:04;94406.50;;;14.58;43.58
20027;BME280;10174;42.688;23.344;2023-04-26T11:30:31;94342.31;;;13.78;43.65
20027;BME280;10174;42.688;23.344;2023-04-26T11:33:01;94385.91;;;14.62;43.38
20027;BME280;10174;42.688;23.344;2023-04-26T11:35:28;94320.72;;;14.32;43.59
20027;BME280;10174;42.688;23.344;2023-04-26T11:37:58;94387.50;;;14.63;43.00
20027;BME280;10174;42.688;23.344;2023-04-26T11:40:30;94371.16;;;14.68;43.06
20027;BME280;10174;42.688;23.344;2023-04-26T11:43:06;94385.97;;;14.79;42.58
20027;BME280;10174;42.688;23.344;2023-04-26T11:45:33;94395.84;;;15.24;42.67
20027;BME280;10174;42.688;23.344;2023-04-26T11:48:01;94400.31;;;15.29;41.34
20027;BME280;10174;42.688;23.344;2023-04-26T11:50:28;94375.66;;;15.39;40.95
20027;BME280;10174;42.688;23.344;2023-04-26T11:52:55;94404.50;;;15.70;40.79
20027;BME280;10174;42.688;23.344;2023-04-26T11:55:28;94280.06;;;14.77;40.46
20027;BME280;10174;42.688;23.344;2023-04-26T11:57:55;94399.78;;;15.93;41.80
20027;BME280;10174;42.688;23.344;2023-04-26T12:00:21;94363.63;;;15.80;41.75
20027;BME280;10174;42.688;23.344;2023-04-26T12:02:48;94385.28;;;15.80;41.07
20027;BME280;10174;42.688;23.344;2023-04-26T12:05:23;94383.38;;;15.90;40.83
20027;BME280;10174;42.688;23.344;2023-04-26T12:07:54;94398.97;;;15.93;41.16
20027;BME280;10174;42.688;23.344;2023-04-26T12:10:34;94295.00;;;14.66;42.30
20027;BME280;10174;42.688;23.344;2023-04-26T12:13:00;94392.94;;;15.12;43.01
20027;BME280;10174;42.688;23.344;2023-04-26T12:15:31;94402.81;;;14.76;43.09
20027;BME280;10174;42.688;23.344;2023-04-26T12:18:05;94397.44;;;15.34;42.56
20027;BME280;10174;42.688;23.344;2023-04-26T12:20:33;94400.97;;;15.43;41.84
20027;BME280;10174;42.688;23.344;2023-04-26T12:23:06;94407.13;;;15.26;43.39
20027;BME280;10174;42.688;23.344;2023-04-26T12:25:36;94352.78;;;14.88;42.25
20027;BME280;10174;42.688;23.344;2023-04-26T12:28:04;94398.25;;;15.35;42.39
20027;BME280;10174;42.688;23.344;2023-04-26T12:30:30;94412.13;;;14.93;42.69
20027;BME280;10174;42.688;23.344;2023-04-26T12:32:56;94373.34;;;14.35;42.77
20027;BME280;10174;42.688;23.344;2023-04-26T12:35:22;94347.63;;;14.37;42.86
20027;BME280;10174;42.688;23.344;2023-04-26T12:37:49;94347.44;;;14.65;42.26
20027;BME280;10174;42.688;23.344;2023-04-26T12:40:16;94413.06;;;14.34;43.49
20027;BME280;10174;42.688;23.344;2023-04-26T12:42:45;94397.47;;;14.31;43.74
20027;BME280;10174;42.688;23.344;2023-04-26T12:45:11;94370.97;;;14.11;44.40
20027;BME280;10174;42.688;23.344;2023-04-26T12:47:36;94398.81;;;14.42;44.09
20027;BME280;10174;42.688;23.344;2023-04-26T12:50:02;94380.28;;;14.27;44.98
20027;BME280;10174;42.688;23.344;2023-04-26T12:52:29;94379.63;;;13.99;44.99
20027;BME280;10174;42.688;23.344;2023-04-26T12:54:54;94391.34;;;14.17;45.52